CheckWX is a tool to help pilots better visualize weather data.  It is not intended as a substitute for an official pre-flight weather briefing.

17:42:22 UTC

KIAH TAF
George Bush Intercontinental / Houston Airport
Houston, Texas, USA
KIAH 271138Z 2712/2818 21004KT P6SM SKC FM271500 27006KT P6SM SCT250 FM272200 24005KT P6SM VCTS BKN040CB FM280300 VRB04KT P6SM SCT040 OVC100 FM281400 09005KT P6SM BKN070

May-27@
12:00 UTC

May-27 @ 12:00 UTC

May-27@
15:00 UTC

May-27 @ 15:00 UTC

TAF KIAH 271138Z 2712/2818 21004KT P6SM SKC

Expired

Wind
  • 210° at 4 KTS
Cloud Levels
  • Clear skies

May-27@
15:00 UTC

May-27 @ 15:00 UTC

May-27@
22:00 UTC

May-27 @ 22:00 UTC

FM271500 27006KT P6SM SCT250

Expired

Wind
  • 270° at 6 KTS
Cloud Levels
  • Scattered at 25,000' AGL

May-27@
22:00 UTC

May-27 @ 22:00 UTC

May-28@
03:00 UTC

May-28 @ 03:00 UTC

FM272200 24005KT P6SM VCTS BKN040CB

Expired

Wind
  • 240° at 5 KTS
Conditions
Area Thunderstorm
Cloud Levels
  • Broken at 4,000' AGL

May-28@
03:00 UTC

May-28 @ 03:00 UTC

May-28@
14:00 UTC

May-28 @ 14:00 UTC

FM280300 VRB04KT P6SM SCT040 OVC100

Expired

Wind
  • Variable at 4 KTS
Cloud Levels
  • Scattered at 4,000' AGL
  • Overcast at 10,000' AGL

May-28@
14:00 UTC

May-28 @ 14:00 UTC

May-28@
18:00 UTC

May-28 @ 18:00 UTC

FM281400 09005KT P6SM BKN070

From

From Standard forecast or significant change

Wind
  • 090° at 5 KTS
Cloud Levels
  • Broken at 7,000' AGL